createdAt,value
2017-02-12T00:12:42.155Z,1026.7
2017-02-12T00:16:51.840Z,1026.8
2017-02-12T00:18:57.199Z,1026.8
2017-02-12T00:19:59.476Z,1026.7
2017-02-12T00:21:01.925Z,1026.8
2017-02-12T00:22:04.369Z,1026.7
2017-02-12T00:23:06.816Z,1026.8
2017-02-12T00:24:09.261Z,1026.8
2017-02-12T00:25:12.041Z,1026.8
2017-02-12T00:26:14.316Z,1026.9
2017-02-12T00:27:16.759Z,1026.8
2017-02-12T00:28:19.206Z,1026.9
2017-02-12T00:29:21.989Z,1026.9
2017-02-12T00:30:24.433Z,1026.9
2017-02-12T00:31:26.715Z,1026.9
2017-02-12T00:32:29.160Z,1026.9
2017-02-12T00:33:31.948Z,1026.9
2017-02-12T00:34:34.400Z,1027
2017-02-12T00:35:36.845Z,1027
2017-02-12T00:36:39.291Z,1027
2017-02-12T00:37:41.739Z,1027
2017-02-12T00:38:44.185Z,1027
2017-02-12T00:39:46.632Z,1027.1
2017-02-12T00:40:49.079Z,1027.1
2017-02-12T00:41:51.534Z,1027.1
2017-02-12T00:42:53.982Z,1027
2017-02-12T00:43:56.426Z,1027.1
2017-02-12T00:44:58.886Z,1027.1
2017-02-12T00:46:01.330Z,1027.1
2017-02-12T00:47:03.799Z,1027.1
2017-02-12T00:48:06.271Z,1027.1
2017-02-12T00:49:08.716Z,1027.1
2017-02-12T00:51:14.088Z,1027.1
2017-02-12T00:52:16.536Z,1027.2
2017-02-12T00:53:18.985Z,1027.2
2017-02-12T00:54:21.435Z,1027.2
2017-02-12T00:55:23.879Z,1027.2
2017-02-12T00:56:26.328Z,1027.2
2017-02-12T00:57:28.773Z,1027.2
2017-02-12T00:58:31.221Z,1027.2
2017-02-12T00:59:33.669Z,1027.2
2017-02-12T01:00:36.117Z,1027.3
2017-02-12T01:01:38.903Z,1027.2
2017-02-12T01:02:41.350Z,1027.2
2017-02-12T01:03:43.629Z,1027.2
2017-02-12T01:04:46.074Z,1027.3
2017-02-12T01:05:48.528Z,1027.3
2017-02-12T01:06:50.975Z,1027.3
2017-02-12T01:07:53.758Z,1027.2
2017-02-12T01:23:30.876Z,1027.3
2017-02-12T01:24:33.324Z,1027.3
2017-02-12T01:26:38.178Z,1027.3
2017-02-12T01:27:40.622Z,1027.3
2017-02-12T01:28:43.067Z,1027.3
2017-02-12T01:29:45.515Z,1027.3
2017-02-12T01:30:47.961Z,1027.3
2017-02-12T01:31:50.407Z,1027.3
2017-02-12T01:32:52.857Z,1027.3
2017-02-12T01:33:55.302Z,1027.3
2017-02-12T01:34:57.751Z,1027.4
2017-02-12T01:36:00.204Z,1027.4
2017-02-12T01:37:02.719Z,1027.4
2017-02-12T01:38:05.503Z,1027.4
2017-02-12T01:39:07.787Z,1027.4
2017-02-12T01:40:10.229Z,1027.4
2017-02-12T01:41:12.675Z,1027.4
2017-02-12T01:42:15.452Z,1027.4
2017-02-12T01:43:17.730Z,1027.4
2017-02-12T01:44:20.175Z,1027.5
2017-02-12T01:45:22.622Z,1027.5
2017-02-12T01:46:25.091Z,1027.5
2017-02-12T01:47:27.542Z,1027.5
2017-02-12T01:48:29.988Z,1027.5
2017-02-12T01:49:32.432Z,1027.6
2017-02-12T01:50:34.921Z,1027.5
2017-02-12T01:51:37.365Z,1027.5
2017-02-12T01:52:40.144Z,1027.5
2017-02-12T01:53:42.593Z,1027.5
2017-02-12T01:54:45.037Z,1027.6
2017-02-12T01:55:47.312Z,1027.5
2017-02-12T01:56:49.767Z,1027.5
2017-02-12T01:57:52.557Z,1027.5
2017-02-12T01:58:55.013Z,1027.5
2017-02-12T01:59:57.461Z,1027.6
2017-02-12T02:00:59.906Z,1027.5
2017-02-12T02:02:02.376Z,1027.6
2017-02-12T02:03:04.823Z,1027.5
2017-02-12T02:04:07.148Z,1027.6
2017-02-12T02:05:09.929Z,1027.5
2017-02-12T02:06:12.379Z,1027.5
2017-02-12T02:07:14.660Z,1027.5
2017-02-12T02:08:17.111Z,1027.5
2017-02-12T02:09:19.556Z,1027.5
2017-02-12T02:10:22.004Z,1027.5
2017-02-12T02:11:24.450Z,1027.6
2017-02-12T02:12:26.897Z,1027.6
2017-02-12T02:13:29.847Z,1027.6
2017-02-12T02:14:32.293Z,1027.6
2017-02-12T02:15:34.742Z,1027.5
2017-02-12T02:16:37.185Z,1027.5
2017-02-12T02:17:39.626Z,1027.6
2017-02-12T02:18:42.071Z,1027.6
2017-02-12T02:19:44.568Z,1027.6
2017-02-12T02:20:47.014Z,1027.6
2017-02-12T02:23:54.265Z,1027.7
2017-02-12T02:24:56.713Z,1027.6
2017-02-12T02:25:59.179Z,1027.6
2017-02-12T02:27:01.571Z,1027.6
2017-02-12T02:28:04.019Z,1027.7
2017-02-12T02:29:06.971Z,1027.6
2017-02-12T02:30:09.420Z,1027.7
2017-02-12T02:32:14.272Z,1027.7
2017-02-12T02:34:19.124Z,1027.7
2017-02-12T02:35:21.567Z,1027.7
2017-02-12T02:36:24.021Z,1027.7
2017-02-12T02:37:26.472Z,1027.7
2017-02-12T02:38:29.197Z,1027.7
2017-02-12T02:39:31.642Z,1027.7
2017-02-12T02:40:34.094Z,1027.7
2017-02-12T02:41:36.542Z,1027.7
2017-02-12T02:42:39.002Z,1027.8
2017-02-12T02:43:41.479Z,1027.8
2017-02-12T02:44:43.925Z,1027.8
2017-02-12T02:45:46.381Z,1027.8
2017-02-12T02:46:48.829Z,1027.8
2017-02-12T02:47:51.279Z,1027.8
2017-02-12T02:48:53.722Z,1027.8
2017-02-12T02:49:56.171Z,1027.8
2017-02-12T02:50:58.614Z,1027.7
2017-02-12T02:52:01.060Z,1027.9
2017-02-12T02:53:03.508Z,1027.8
2017-02-12T02:54:06.291Z,1027.9
2017-02-12T02:55:08.735Z,1027.8
2017-02-12T02:56:11.016Z,1027.8
2017-02-12T02:57:13.797Z,1027.8
2017-02-12T02:59:18.647Z,1027.8
2017-02-12T03:00:21.094Z,1027.9
2017-02-12T03:01:23.539Z,1027.8
2017-02-12T03:03:28.393Z,1027.9
2017-02-12T03:04:30.845Z,1028
2017-02-12T03:05:33.293Z,1027.9
2017-02-12T03:06:35.745Z,1027.9
2017-02-12T03:07:38.193Z,1027.9
2017-02-12T03:08:40.975Z,1027.9
2017-02-12T03:09:43.428Z,1028.1
2017-02-12T03:10:46.611Z,1028
2017-02-12T03:11:48.049Z,1028
2017-02-12T03:12:50.487Z,1028
2017-02-12T03:13:52.953Z,1028
2017-02-12T03:14:55.900Z,1028
2017-02-12T03:15:58.343Z,1028
2017-02-12T03:17:00.627Z,1028
2017-02-12T03:18:03.070Z,1028
2017-02-12T03:19:05.509Z,1028
2017-02-12T03:20:07.950Z,1028
2017-02-12T03:21:10.726Z,1028
2017-02-12T03:22:13.168Z,1028
2017-02-12T03:23:15.612Z,1028.1
2017-02-12T03:24:18.053Z,1028
2017-02-12T03:25:20.494Z,1028
2017-02-12T03:26:22.934Z,1028.1
2017-02-12T03:27:25.375Z,1028.1
2017-02-12T03:28:27.824Z,1028
2017-02-12T03:29:30.263Z,1028
2017-02-12T03:30:32.705Z,1028
2017-02-12T03:31:35.148Z,1028.1
2017-02-12T03:32:37.923Z,1027.9
2017-02-12T03:33:40.362Z,1028
2017-02-12T03:35:45.204Z,1027.9
2017-02-12T03:36:47.646Z,1028
2017-02-12T03:37:50.085Z,1027.9
2017-02-12T03:38:52.528Z,1027.9
2017-02-12T03:39:54.968Z,1028
2017-02-12T03:40:57.416Z,1027.9
2017-02-12T03:41:59.859Z,1027.9
2017-02-12T03:43:02.299Z,1027.9
2017-02-12T03:44:04.739Z,1027.9
2017-02-12T03:45:07.682Z,1027.9
2017-02-12T03:49:17.345Z,1027.9
2017-02-12T03:50:19.800Z,1028
2017-02-12T03:51:22.237Z,1027.9
2017-02-12T03:52:24.676Z,1027.9
2017-02-12T03:53:27.120Z,1028
2017-02-12T03:54:29.563Z,1028
2017-02-12T03:55:32.003Z,1028
2017-02-12T03:56:34.443Z,1028
2017-02-12T03:57:36.884Z,1028
2017-02-12T03:58:39.350Z,1028
2017-02-12T03:59:42.297Z,1028.1
2017-02-12T04:00:44.402Z,1028.1
2017-02-12T04:01:46.843Z,1028.1
2017-02-12T04:02:49.281Z,1028.1
2017-02-12T04:03:51.719Z,1028.1
2017-02-12T04:04:54.663Z,1028.3
2017-02-12T04:05:56.943Z,1028.3
2017-02-12T04:06:59.222Z,1028.3
2017-02-12T04:09:04.412Z,1028.3
2017-02-12T04:10:06.848Z,1028.3
2017-02-12T04:11:09.149Z,1028.3
2017-02-12T04:12:11.594Z,1028.3
2017-02-12T04:13:14.037Z,1028.4
2017-02-12T04:14:16.474Z,1028.3
2017-02-12T04:16:21.827Z,1028.5
2017-02-12T04:17:24.270Z,1028.3
2017-02-12T04:18:26.513Z,1028.3
2017-02-12T04:19:28.953Z,1028.4
2017-02-12T04:21:33.797Z,1028.3
2017-02-12T04:23:39.141Z,1028.3
2017-02-12T04:24:41.578Z,1028.3
2017-02-12T04:25:44.018Z,1028.4
2017-02-12T04:27:48.874Z,1028.4
2017-02-12T04:28:51.316Z,1028.3
2017-02-12T04:29:53.756Z,1028.3
2017-02-12T04:30:56.194Z,1028.4
2017-02-12T04:31:58.636Z,1028.3
2017-02-12T04:34:03.819Z,1028.3
2017-02-12T04:35:06.264Z,1028.5
2017-02-12T04:36:08.709Z,1028.5
2017-02-12T04:37:11.149Z,1028.4
2017-02-12T04:38:13.592Z,1028.5
2017-02-12T04:39:16.034Z,1028.5
2017-02-12T04:40:18.477Z,1028.4
2017-02-12T04:41:20.917Z,1028.5
2017-02-12T04:42:23.354Z,1028.5
2017-02-12T04:43:25.793Z,1028.5
2017-02-12T04:44:28.232Z,1028.5
2017-02-12T04:45:30.675Z,1028.5
2017-02-12T04:46:33.620Z,1028.5
2017-02-12T04:47:36.063Z,1028.4
2017-02-12T04:48:38.502Z,1028.5
2017-02-12T04:49:40.780Z,1028.5
2017-02-12T04:50:43.225Z,1028.5
2017-02-12T04:51:45.668Z,1028.5
2017-02-12T04:52:48.110Z,1028.5
2017-02-12T04:53:50.888Z,1028.5
2017-02-12T04:54:53.328Z,1028.5
2017-02-12T04:55:55.764Z,1028.6
2017-02-12T04:56:58.209Z,1028.5
2017-02-12T04:59:03.049Z,1028.6
2017-02-12T05:00:05.501Z,1028.6
2017-02-12T05:01:07.942Z,1028.6
2017-02-12T05:02:10.382Z,1028.6
2017-02-12T05:03:12.822Z,1028.5
2017-02-12T05:04:15.258Z,1028.6
2017-02-12T05:05:17.699Z,1028.5
2017-02-12T05:06:20.139Z,1028.6
2017-02-12T05:07:22.816Z,1028.6
2017-02-12T05:08:25.254Z,1028.5
2017-02-12T05:09:27.697Z,1028.6
2017-02-12T05:10:30.138Z,1028.7
2017-02-12T05:11:32.599Z,1028.5
2017-02-12T05:12:35.039Z,1028.5
2017-02-12T05:13:37.503Z,1028.6
2017-02-12T05:14:39.943Z,1028.6
2017-02-12T05:15:42.387Z,1028.7
2017-02-12T05:16:45.334Z,1028.6
2017-02-12T05:17:47.778Z,1028.6
2017-02-12T05:18:50.217Z,1028.6
2017-02-12T05:19:52.652Z,1028.7
2017-02-12T05:20:55.102Z,1028.7
2017-02-12T05:21:57.541Z,1028.7
2017-02-12T05:23:00.006Z,1028.8
2017-02-12T05:24:02.454Z,1028.7
2017-02-12T05:25:04.915Z,1028.7
2017-02-12T05:26:07.362Z,1028.8
2017-02-12T05:27:09.639Z,1028.7
2017-02-12T05:28:12.121Z,1028.8
2017-02-12T05:29:14.761Z,1028.8
2017-02-12T05:30:17.205Z,1028.8
2017-02-12T05:31:19.979Z,1028.7
2017-02-12T05:32:22.416Z,1028.8
2017-02-12T05:34:27.260Z,1028.8
2017-02-12T05:35:29.540Z,1028.8
2017-02-12T05:36:31.984Z,1028.8
2017-02-12T05:37:34.429Z,1028.8
2017-02-12T05:38:36.869Z,1028.8
2017-02-12T05:39:39.317Z,1028.8
2017-02-12T05:42:46.735Z,1028.9
2017-02-12T05:44:52.088Z,1028.9
2017-02-12T05:45:54.538Z,1029
2017-02-12T05:46:56.979Z,1029
2017-02-12T05:51:06.633Z,1028.9
2017-02-12T05:52:09.073Z,1029
2017-02-12T05:54:14.255Z,1029.1
2017-02-12T05:55:16.700Z,1029.1
2017-02-12T05:56:19.139Z,1029.1
2017-02-12T05:57:21.575Z,1029.1
2017-02-12T05:59:26.420Z,1029.1
2017-02-12T06:00:28.861Z,1029.2
2017-02-12T06:01:31.329Z,1029.2
2017-02-12T06:02:33.790Z,1029.2
2017-02-12T06:03:36.233Z,1029.2
2017-02-12T06:04:38.693Z,1029.2
2017-02-12T06:05:41.160Z,1029.2
2017-02-12T06:06:43.604Z,1029.2
2017-02-12T06:07:46.443Z,1029.1
2017-02-12T06:08:48.882Z,1029.2
2017-02-12T06:09:51.322Z,1029.2
2017-02-12T06:10:53.765Z,1029.2
2017-02-12T06:11:56.210Z,1029.1
2017-02-12T06:12:58.654Z,1029.2
2017-02-12T06:14:00.929Z,1029.3
2017-02-12T06:15:03.371Z,1029.2
2017-02-12T06:16:06.154Z,1029.2
2017-02-12T06:17:08.595Z,1029.2
2017-02-12T06:18:11.033Z,1029.3
2017-02-12T06:19:13.305Z,1029.3
2017-02-12T06:20:15.745Z,1029.3
2017-02-12T06:21:18.687Z,1029.3
2017-02-12T06:22:21.128Z,1029.3
2017-02-12T06:23:23.569Z,1029.4
2017-02-12T06:24:26.012Z,1029.3
2017-02-12T06:25:28.453Z,1029.3
2017-02-12T06:26:30.895Z,1029.2
2017-02-12T06:27:33.336Z,1029.2
2017-02-12T06:28:35.774Z,1029.2
2017-02-12T06:29:38.213Z,1029.2
2017-02-12T06:30:40.655Z,1029.1
2017-02-12T06:31:43.095Z,1029.1
2017-02-12T06:32:45.535Z,1029.2
2017-02-12T06:33:47.975Z,1029.2
2017-02-12T06:34:50.420Z,1029.2
2017-02-12T06:35:52.859Z,1029.2
2017-02-12T06:40:03.017Z,1029.3
2017-02-12T06:41:05.463Z,1029.3
2017-02-12T06:43:10.309Z,1029.3
2017-02-12T06:44:12.749Z,1029.3
2017-02-12T06:45:15.526Z,1029.2
2017-02-12T06:46:17.968Z,1029.3
2017-02-12T06:47:20.409Z,1029.3
2017-02-12T06:48:22.849Z,1029.3
2017-02-12T06:50:27.699Z,1029.4
2017-02-12T06:51:30.150Z,1029.3
2017-02-12T06:52:32.591Z,1029.3
2017-02-12T06:55:40.194Z,1029.5
2017-02-12T06:56:42.473Z,1029.5
2017-02-12T07:02:57.449Z,1029.6
2017-02-12T07:17:32.161Z,1029.8
2017-02-12T07:18:34.606Z,1029.8
2017-02-12T07:19:37.046Z,1029.9
2017-02-12T07:20:39.487Z,1029.9
2017-02-12T07:21:41.927Z,1029.9
2017-02-12T07:22:44.368Z,1030
2017-02-12T07:23:46.808Z,1030
2017-02-12T07:24:49.247Z,1029.9
2017-02-12T07:25:51.684Z,1030
2017-02-12T07:26:54.125Z,1030
2017-02-12T07:27:56.569Z,1030
2017-02-12T07:28:59.010Z,1030
2017-02-12T07:30:01.446Z,1030.1
2017-02-12T07:31:03.937Z,1030
2017-02-12T07:32:06.382Z,1030
2017-02-12T07:33:08.827Z,1030
2017-02-12T07:34:11.266Z,1030.1
2017-02-12T07:36:16.619Z,1030.2
2017-02-12T07:37:19.063Z,1030.1
2017-02-12T07:38:21.505Z,1030.2
2017-02-12T07:40:26.348Z,1030
2017-02-12T07:41:28.785Z,1030
2017-02-12T07:42:31.225Z,1030
2017-02-12T07:43:33.661Z,1030
2017-02-12T07:44:36.106Z,1030.1
2017-02-12T07:45:38.547Z,1030
2017-02-12T07:46:40.986Z,1030.1
2017-02-12T07:47:43.431Z,1030.2
2017-02-12T07:48:45.876Z,1030.1
2017-02-12T07:49:48.319Z,1030.2
2017-02-12T07:50:51.260Z,1030.2
2017-02-12T07:51:53.706Z,1030.2
2017-02-12T07:52:56.144Z,1030.3
2017-02-12T07:53:58.580Z,1030.3
2017-02-12T07:55:01.021Z,1030.4
2017-02-12T07:56:03.465Z,1030.3
2017-02-12T07:57:05.931Z,1030.3
2017-02-12T07:59:10.825Z,1030.3
2017-02-12T08:00:13.267Z,1030.4
2017-02-12T08:01:15.707Z,1030.4
2017-02-12T08:02:18.155Z,1030.5
2017-02-12T08:03:20.595Z,1030.4
2017-02-12T08:04:23.062Z,1030.4
2017-02-12T08:05:25.501Z,1030.4
2017-02-12T08:06:28.086Z,1030.4
2017-02-12T08:07:30.382Z,1030.3
2017-02-12T08:08:32.822Z,1030.3
2017-02-12T08:09:35.773Z,1030.4
2017-02-12T08:10:38.211Z,1030.4
2017-02-12T08:11:40.658Z,1030.4
2017-02-12T08:12:43.118Z,1030.3
2017-02-12T08:13:45.561Z,1030.3
2017-02-12T08:14:48.005Z,1030.3
2017-02-12T08:16:52.847Z,1030.3
2017-02-12T08:17:55.287Z,1030.3
2017-02-12T08:18:57.725Z,1030.3
2017-02-12T08:20:00.166Z,1030.3
2017-02-12T08:21:02.605Z,1030.3
2017-02-12T08:22:05.047Z,1030.3
2017-02-12T08:23:07.819Z,1030.3
2017-02-12T08:24:10.130Z,1030.3
2017-02-12T08:25:12.911Z,1030.4
2017-02-12T08:26:15.362Z,1030.3
2017-02-12T08:27:17.804Z,1030.3
2017-02-12T08:28:20.248Z,1030.4
2017-02-12T08:29:22.688Z,1030.3
2017-02-12T08:31:27.534Z,1030.4
2017-02-12T08:32:29.973Z,1030.4
2017-02-12T08:33:32.418Z,1030.3
2017-02-12T08:34:34.852Z,1030.3
2017-02-12T08:35:37.342Z,1030.3
2017-02-12T08:37:42.209Z,1030.4
2017-02-12T08:38:44.651Z,1030.3
2017-02-12T08:39:47.093Z,1030.3
2017-02-12T08:40:49.560Z,1030.3
2017-02-12T08:41:52.505Z,1030.5
2017-02-12T08:42:54.973Z,1030.5
2017-02-12T08:43:57.418Z,1030.5
2017-02-12T08:44:59.690Z,1030.4
2017-02-12T08:46:02.148Z,1030.5
2017-02-12T08:47:04.589Z,1030.5
2017-02-12T08:48:07.029Z,1030.5
2017-02-12T08:49:09.809Z,1030.5
2017-02-12T08:50:12.277Z,1030.5
2017-02-12T08:51:14.718Z,1030.4
2017-02-12T08:52:17.159Z,1030.5
2017-02-12T08:53:19.598Z,1030.5
2017-02-12T08:54:22.038Z,1030.5
2017-02-12T08:55:24.475Z,1030.5
2017-02-12T08:56:26.915Z,1030.6
2017-02-12T08:57:29.358Z,1030.6
2017-02-12T08:58:31.800Z,1030.6
2017-02-12T08:59:34.242Z,1030.6
2017-02-12T09:00:36.709Z,1030.6
2017-02-12T09:01:39.173Z,1030.6
2017-02-12T09:03:44.014Z,1030.6
2017-02-12T09:04:46.453Z,1030.6
2017-02-12T09:05:49.397Z,1030.6
2017-02-12T09:07:54.250Z,1030.6
2017-02-12T09:11:01.509Z,1030.7
2017-02-12T09:12:03.995Z,1030.6
2017-02-12T09:13:06.437Z,1030.7
2017-02-12T09:15:11.280Z,1030.8
2017-02-12T09:16:13.891Z,1030.8
2017-02-12T09:17:16.347Z,1030.8
2017-02-12T09:19:21.192Z,1030.7
2017-02-12T09:24:33.760Z,1030.8
2017-02-12T09:25:36.198Z,1030.8
2017-02-12T09:26:38.642Z,1030.9
2017-02-12T09:27:41.418Z,1030.9
2017-02-12T09:28:43.863Z,1030.8
2017-02-12T09:29:46.311Z,1030.8
2017-02-12T09:30:48.753Z,1030.9
2017-02-12T09:31:51.192Z,1030.8
2017-02-12T09:32:53.635Z,1030.9
2017-02-12T09:33:56.084Z,1030.9
2017-02-12T09:34:58.529Z,1030.9
2017-02-12T09:36:00.993Z,1030.9
2017-02-12T09:37:03.461Z,1030.9
2017-02-12T09:39:08.305Z,1030.9
2017-02-12T09:41:13.384Z,1030.9
2017-02-12T09:42:15.656Z,1030.9
2017-02-12T09:43:18.124Z,1031
2017-02-12T09:44:21.067Z,1031
2017-02-12T09:45:23.508Z,1031
2017-02-12T09:46:26.021Z,1031
2017-02-12T09:47:28.457Z,1031
2017-02-12T09:48:30.892Z,1031
2017-02-12T09:49:33.165Z,1031.1
2017-02-12T09:50:35.605Z,1031.1
2017-02-12T09:51:38.376Z,1031.1
2017-02-12T09:52:40.815Z,1031.1
2017-02-12T09:53:43.280Z,1031.2
2017-02-12T09:54:45.721Z,1031.2
2017-02-12T09:55:48.162Z,1031.2
2017-02-12T09:56:50.602Z,1031.2
2017-02-12T09:57:53.042Z,1031.2
2017-02-12T09:59:57.886Z,1031.4
2017-02-12T10:02:02.735Z,1031.3
2017-02-12T10:03:05.578Z,1031.4
2017-02-12T10:07:15.234Z,1031.4
2017-02-12T10:08:17.676Z,1031.4
2017-02-12T10:10:23.027Z,1031.3
2017-02-12T10:12:27.745Z,1031.3
2017-02-12T10:13:30.188Z,1031.4
2017-02-12T10:14:32.644Z,1031.4
2017-02-12T10:15:35.084Z,1031.4
2017-02-12T10:16:37.525Z,1031.4
2017-02-12T10:17:39.968Z,1031.5
2017-02-12T10:18:42.921Z,1031.4
2017-02-12T10:19:45.366Z,1031.3
2017-02-12T10:21:50.210Z,1031.3
2017-02-12T10:22:52.651Z,1031.5
2017-02-12T10:23:55.098Z,1031.4
2017-02-12T10:24:57.542Z,1031.5
2017-02-12T10:25:59.991Z,1031.5
2017-02-12T10:27:02.433Z,1031.5
2017-02-12T10:28:04.876Z,1031.5
2017-02-12T10:29:07.341Z,1031.5
2017-02-12T10:30:09.805Z,1031.5
2017-02-12T10:31:12.251Z,1031.5
2017-02-12T10:32:15.036Z,1031.5
2017-02-12T10:33:17.476Z,1031.5
2017-02-12T10:34:19.917Z,1031.5
2017-02-12T10:35:22.354Z,1031.5
2017-02-12T10:36:24.796Z,1031.6
2017-02-12T10:37:27.238Z,1031.6
2017-02-12T10:38:29.679Z,1031.6
2017-02-12T10:39:32.143Z,1031.5
2017-02-12T10:40:34.649Z,1031.5
2017-02-12T10:41:37.118Z,1031.5
2017-02-12T10:42:39.561Z,1031.5
2017-02-12T10:43:42.001Z,1031.6
2017-02-12T10:45:47.353Z,1031.7
2017-02-12T10:46:49.794Z,1031.6
2017-02-12T10:47:52.242Z,1031.6
2017-02-12T10:48:54.684Z,1031.7
2017-02-12T10:50:59.539Z,1031.6
2017-02-12T10:52:02.005Z,1031.6
2017-02-12T10:53:04.444Z,1031.6
2017-02-12T10:54:06.887Z,1031.7
2017-02-12T10:55:09.328Z,1031.7
2017-02-12T10:56:12.281Z,1031.7
2017-02-12T10:57:14.784Z,1031.7
2017-02-12T10:58:17.224Z,1031.8
2017-02-12T10:59:19.666Z,1031.8
2017-02-12T11:00:22.105Z,1031.8
2017-02-12T11:01:24.544Z,1031.8
2017-02-12T11:02:26.983Z,1031.8
2017-02-12T11:03:29.424Z,1031.7
2017-02-12T11:04:31.865Z,1031.8
2017-02-12T11:05:34.308Z,1031.8
2017-02-12T11:06:36.751Z,1031.8
2017-02-12T11:07:39.196Z,1031.8
2017-02-12T11:08:41.639Z,1031.8
2017-02-12T11:09:44.594Z,1031.7
2017-02-12T11:10:47.033Z,1031.8
2017-02-12T11:11:49.470Z,1031.7
2017-02-12T11:12:51.579Z,1031.9
2017-02-12T11:13:54.528Z,1031.7
2017-02-12T11:14:56.799Z,1031.8
2017-02-12T11:15:59.240Z,1031.7
2017-02-12T11:17:01.682Z,1031.8
2017-02-12T11:18:04.127Z,1031.8
2017-02-12T11:19:06.568Z,1031.8
2017-02-12T11:20:09.006Z,1031.8
2017-02-12T11:21:11.453Z,1031.8
2017-02-12T11:22:14.434Z,1031.7
2017-02-12T11:23:16.705Z,1031.7
2017-02-12T11:24:19.143Z,1031.8
2017-02-12T11:25:21.589Z,1031.8
2017-02-12T11:26:24.033Z,1031.9
2017-02-12T11:27:26.819Z,1031.8
2017-02-12T11:28:29.092Z,1031.8
2017-02-12T11:29:31.537Z,1031.9
2017-02-12T11:30:33.981Z,1031.9
2017-02-12T11:31:36.421Z,1031.8
2017-02-12T11:32:38.866Z,1031.9
2017-02-12T11:33:41.313Z,1031.9
2017-02-12T11:34:44.260Z,1031.9
2017-02-12T11:35:46.728Z,1031.9
2017-02-12T11:36:49.163Z,1031.9
2017-02-12T11:37:51.628Z,1031.9
2017-02-12T11:38:54.071Z,1031.9
2017-02-12T11:39:56.507Z,1031.9
2017-02-12T11:40:58.948Z,1031.9
2017-02-12T11:42:01.395Z,1031.9
2017-02-12T11:43:04.176Z,1031.9
2017-02-12T11:44:06.617Z,1031.9
2017-02-12T11:45:09.079Z,1032
2017-02-12T11:46:11.520Z,1031.9
2017-02-12T11:47:13.957Z,1031.9
2017-02-12T11:48:16.232Z,1031.9
2017-02-12T11:49:18.673Z,1031.9
2017-02-12T11:50:21.116Z,1032
2017-02-12T11:51:24.062Z,1032
2017-02-12T11:52:26.546Z,1032
2017-02-12T11:53:28.989Z,1031.9
2017-02-12T11:54:31.455Z,1032
2017-02-12T11:55:33.899Z,1031.9
2017-02-12T11:56:36.334Z,1032
2017-02-12T11:57:38.773Z,1032
2017-02-12T11:58:41.213Z,1032
2017-02-12T11:59:43.657Z,1032
2017-02-12T12:00:46.100Z,1032
2017-02-12T12:01:48.536Z,1032
2017-02-12T12:02:50.973Z,1032
2017-02-12T12:03:53.921Z,1032.1
2017-02-12T12:05:58.762Z,1032.1
2017-02-12T12:07:01.202Z,1032.1
2017-02-12T12:08:03.541Z,1032.1
2017-02-12T12:09:05.985Z,1032.1
2017-02-12T12:10:08.462Z,1032.1
2017-02-12T12:11:10.903Z,1032.1
2017-02-12T12:13:16.254Z,1032.2
2017-02-12T12:14:18.525Z,1032.2
2017-02-12T12:15:21.309Z,1032.2
2017-02-12T12:16:23.748Z,1032.2
2017-02-12T12:17:26.188Z,1032.2
2017-02-12T12:18:28.626Z,1032.2
2017-02-12T12:19:31.075Z,1032.1
2017-02-12T12:20:33.514Z,1032.2
2017-02-12T12:21:35.955Z,1032.2
2017-02-12T12:22:38.400Z,1032.2
2017-02-12T12:23:40.843Z,1032.1
2017-02-12T12:24:43.313Z,1032.1
2017-02-12T12:25:45.757Z,1032.2
2017-02-12T12:26:48.705Z,1032.1
2017-02-12T12:27:51.144Z,1032.1
2017-02-12T12:28:53.581Z,1032.2
2017-02-12T12:29:56.018Z,1032.2
2017-02-12T12:30:58.481Z,1032.1
2017-02-12T12:32:00.943Z,1032.2
2017-02-12T12:33:03.382Z,1032.1
2017-02-12T12:34:05.823Z,1032.1
2017-02-12T12:35:08.263Z,1032.1
2017-02-12T12:36:10.873Z,1032.1
2017-02-12T12:37:13.646Z,1032.1
2017-02-12T12:38:15.816Z,1032.2
2017-02-12T12:39:18.254Z,1032.2
2017-02-12T12:40:21.029Z,1032.2
2017-02-12T12:41:23.469Z,1032.2
2017-02-12T12:42:25.915Z,1032.2
2017-02-12T12:44:30.757Z,1032.1
2017-02-12T12:45:33.199Z,1032.2
2017-02-12T12:46:35.639Z,1032.2
2017-02-12T12:47:38.082Z,1032.2
2017-02-12T12:48:41.023Z,1032.2
2017-02-12T12:49:43.460Z,1032.2
2017-02-12T12:50:45.902Z,1032.2
2017-02-12T12:51:48.345Z,1032.2
2017-02-12T12:52:50.785Z,1032.2
2017-02-12T12:53:53.226Z,1032.3
2017-02-12T12:54:55.670Z,1032.2
2017-02-12T12:55:58.113Z,1032.2
2017-02-12T12:57:00.554Z,1032.2
2017-02-12T12:58:03.329Z,1032.1
2017-02-12T12:59:05.813Z,1032.2
2017-02-12T13:00:08.121Z,1032.2
2017-02-12T13:01:10.565Z,1032.1
2017-02-12T13:02:13.009Z,1032.2
2017-02-12T13:03:15.788Z,1032.1
2017-02-12T13:04:18.229Z,1032.2
2017-02-12T13:05:20.677Z,1032.1
2017-02-12T13:06:23.121Z,1032.1
2017-02-12T13:07:25.556Z,1032.2
2017-02-12T13:08:27.825Z,1032.2
2017-02-12T13:09:30.266Z,1032.1
2017-02-12T13:10:33.208Z,1032.2
2017-02-12T13:11:35.644Z,1032.2
2017-02-12T13:12:38.083Z,1032.2
2017-02-12T13:13:40.528Z,1032.2
2017-02-12T13:14:42.966Z,1032.2
2017-02-12T13:15:45.407Z,1032.2
2017-02-12T13:16:47.849Z,1032.1
2017-02-12T13:17:50.289Z,1032.2
2017-02-12T13:19:55.131Z,1032.1
2017-02-12T13:20:57.918Z,1032.2
2017-02-12T13:22:00.361Z,1032.2
2017-02-12T13:23:02.807Z,1032.1
2017-02-12T13:24:05.252Z,1032.1
2017-02-12T13:25:07.694Z,1032.1
2017-02-12T13:26:10.305Z,1032.1
2017-02-12T13:27:12.744Z,1032
2017-02-12T13:29:17.581Z,1032
2017-02-12T13:30:20.026Z,1032
2017-02-12T13:31:22.495Z,1032
2017-02-12T13:33:27.839Z,1032
2017-02-12T13:34:30.275Z,1032
2017-02-12T13:35:32.712Z,1032.1
2017-02-12T13:36:35.176Z,1032
2017-02-12T13:37:37.622Z,1032.1
2017-02-12T13:38:40.065Z,1032
2017-02-12T13:39:42.509Z,1032
2017-02-12T13:40:44.951Z,1032
2017-02-12T13:41:47.390Z,1032.1
2017-02-12T13:42:49.826Z,1032
2017-02-12T13:43:52.766Z,1032.1
2017-02-12T13:44:55.226Z,1032.1
2017-02-12T13:48:02.472Z,1032.1
2017-02-12T13:49:04.915Z,1032.1
2017-02-12T13:50:07.379Z,1032.1
2017-02-12T13:51:09.820Z,1032.2
2017-02-12T13:53:14.664Z,1032.2
2017-02-12T13:54:17.617Z,1032.3
2017-02-12T13:55:20.108Z,1032.2
2017-02-12T13:56:22.569Z,1032.2
2017-02-12T13:57:25.007Z,1032.2
2017-02-12T13:58:27.449Z,1032.1
2017-02-12T13:59:29.911Z,1032.1
2017-02-12T14:00:32.187Z,1032.1
2017-02-12T14:01:34.625Z,1032.2
2017-02-12T14:02:37.066Z,1032.1
2017-02-12T14:03:40.014Z,1032.2
2017-02-12T14:04:42.449Z,1032.2
2017-02-12T14:05:44.622Z,1032.2
2017-02-12T14:06:47.069Z,1032.1
2017-02-12T14:07:49.534Z,1032.1
2017-02-12T14:08:51.974Z,1032.1
2017-02-12T14:09:54.917Z,1032.1
2017-02-12T14:10:57.358Z,1032.1
2017-02-12T14:11:59.795Z,1032.1
2017-02-12T14:13:02.234Z,1032.1
2017-02-12T14:14:04.671Z,1032.1
2017-02-12T14:15:07.113Z,1032
2017-02-12T14:16:09.563Z,1032.1
2017-02-12T14:17:12.029Z,1032.1
2017-02-12T14:18:14.633Z,1032
2017-02-12T14:19:16.905Z,1032.1
2017-02-12T14:20:19.345Z,1032.1
2017-02-12T14:21:22.288Z,1032
2017-02-12T14:22:24.730Z,1032.1
2017-02-12T14:23:27.001Z,1032.1
2017-02-12T14:24:29.441Z,1032
2017-02-12T14:26:34.286Z,1032.1
2017-02-12T14:27:37.234Z,1032.1
2017-02-12T14:28:39.678Z,1032.1
2017-02-12T14:29:41.974Z,1032
2017-02-12T14:30:44.248Z,1032.1
2017-02-12T14:31:46.686Z,1032
2017-02-12T14:32:49.637Z,1032.1
2017-02-12T14:33:52.077Z,1032.1
2017-02-12T14:34:54.517Z,1032.2
2017-02-12T14:35:56.793Z,1032.1
2017-02-12T14:36:59.238Z,1032.1
2017-02-12T14:38:02.064Z,1032.1
2017-02-12T14:39:04.505Z,1032.2
2017-02-12T14:41:09.353Z,1032.2
2017-02-12T14:42:11.821Z,1032.1
2017-02-12T14:43:14.286Z,1032.2
2017-02-12T14:44:16.558Z,1032.1
2017-02-12T14:45:19.004Z,1032.2
2017-02-12T14:46:21.946Z,1032.2
2017-02-12T14:47:24.385Z,1032.2
2017-02-12T14:48:26.659Z,1032.1
2017-02-12T14:49:29.106Z,1032.1
2017-02-12T14:50:31.550Z,1032.1
2017-02-12T14:51:33.994Z,1032.2
2017-02-12T14:52:36.438Z,1032.1
2017-02-12T14:53:39.386Z,1032.1
2017-02-12T14:54:41.829Z,1032.2
2017-02-12T14:55:44.106Z,1032.1
2017-02-12T14:57:48.949Z,1032.2
2017-02-12T14:58:51.390Z,1032.2
2017-02-12T14:59:53.841Z,1032.2
2017-02-12T15:00:56.783Z,1032.3
2017-02-12T15:01:59.221Z,1032.2
2017-02-12T15:03:01.664Z,1032.3
2017-02-12T15:04:04.112Z,1032.3
2017-02-12T15:05:06.556Z,1032.3
2017-02-12T15:06:08.996Z,1032.3
2017-02-12T15:07:11.441Z,1032.2
2017-02-12T15:08:13.884Z,1032.3
2017-02-12T15:09:16.664Z,1032.3
2017-02-12T15:10:19.101Z,1032.3
2017-02-12T15:11:21.545Z,1032.3
2017-02-12T15:12:23.990Z,1032.4